Bei Facebook empfehlenBei Twitter postenGoogle plusPinterest

Das Wetter im Erzgebirge am 24.04.2017

Wetter und Klima am 24.04.2017 Holzhau im Erzgebirge (630m ü.NN)
Letzte gemessene Temperatur und Uhrzeit der Messung23:45:00 Uhr1.70 °C
Temperatur (Maximum / Höchstwert) und Uhrzeit der Messung17:00:00 Uhr14.40 °C
Temperatur (Minimum / Tiefstwert) und Uhrzeit der Messung06:30:00-2.80 °C
Errechneter Absolutwert der Temperaturschwankungen zwischen Tmin und Tmax des Tages17.20 K
Errechnete Tagesmitteltemperatur5.50833 °C
Gesamt - Niederschlag des Tages (in flüssiger Form)0.00 Liter / m²
Luftdruck (Maximum / Höchstwert) und Zeitpunkt der Messung00:45:00 Uhr1016.20 hPa
Luftdruck (Minimum / Tiefstwert) und Zeitpunkt der Messung23:45:00 Uhr1005.90 hPa
Errechneter Absolutwert der Luftdruckschwankungen des Tages10.30 hPa
Höchste gemessene Windgeschwindigkeit und Uhrzeit der Messung12:30:00 Uhr16.92 km/h
Errechnete Windhäufigkeit in Relation zu den Messwerten des Tages30.20833 %
Niedrigste Windkühle (Windchill) und Zeitpunkt der Messung06:30:00 Uhr-2.80 °C
Taupunkt (Maximum / Höchstwert) und Uhrzeit der Messung13:45:00 Uhr2.80 °C
Taupunkt (Minimum / Tiefstwert) und Uhrzeit der Messung06:30:00-4.70 °C
Anzahl der automatisch eingelesenen Messwerte 96

Detaillierte Wetter- und Klima- Messwerte für den 24.04.2017 in Holzhau im Erzgebirge (630m ü.NN)
ZeitTemperaturLuftdruckRel. LuftfeuchteWindWindrichtungWindchillTaupunktNiederschlag l/m²
23:45:001.70 °C1005.90 hPa80.00 %-1.40 °C 
23:30:002.20 °C1006.30 hPa79.00 %-1.10 °C 
23:15:002.60 °C1006.60 hPa79.00 %-0.70 °C 
23:00:002.90 °C1006.70 hPa79.00 %-0.40 °C 
22:45:002.90 °C1006.90 hPa79.00 %-0.40 °C 
22:30:002.70 °C1007.10 hPa79.00 %-0.60 °C 
22:15:002.60 °C1007.20 hPa78.00 %-0.80 °C 
22:00:002.90 °C1007.10 hPa77.00 %-0.70 °C 
21:45:003.30 °C1007.30 hPa75.00 %-0.70 °C 
21:30:003.80 °C1007.30 hPa75.00 %-0.20 °C 
21:15:004.20 °C1007.60 hPa73.00 %-0.20 °C 
21:00:004.60 °C1007.70 hPa70.00 %-0.40 °C 
20:45:005.20 °C1007.50 hPa66.00 %-0.60 °C 
20:30:006.10 °C1007.60 hPa64.00 %-0.20 °C 
20:15:007.20 °C1007.50 hPa60.00 %0.00 °C 
20:00:008.20 °C1007.50 hPa56.00 %0.00 °C 
19:45:009.30 °C1007.60 hPa53.00 %0.20 °C 
19:30:0010.30 °C1007.70 hPa51.00 %0.60 °C 
19:15:0010.90 °C1007.50 hPa49.00 %0.60 °C 
19:00:0011.80 °C1007.70 hPa48.00 %5.40 km/hSSW11.70 °C1.20 °C 
18:45:0012.40 °C1007.80 hPa47.00 %11.16 km/hSW11.30 °C1.40 °C 
18:30:0012.60 °C1007.90 hPa47.00 %1.60 °C 
18:15:0012.60 °C1008.00 hPa47.00 %8.28 km/hWSW12.00 °C1.60 °C 
18:00:0012.10 °C1008.10 hPa48.00 %1.40 °C 
17:45:0012.10 °C1008.40 hPa46.00 %5.04 km/hSW12.10 °C0.80 °C 
17:30:0013.00 °C1008.50 hPa44.00 %1.00 °C 
17:15:0013.90 °C1008.60 hPa44.00 %6.12 km/hSSW13.90 °C1.90 °C 
17:00:0014.40 °C1008.90 hPa43.00 %2.16 km/hW14.40 °C2.00 °C 
16:45:0014.10 °C1009.00 hPa44.00 %7.56 km/hSSO13.90 °C2.00 °C 
16:30:0014.10 °C1009.30 hPa44.00 %7.20 km/hWSW14.00 °C2.00 °C 
16:15:0014.10 °C1009.20 hPa45.00 %2.16 km/hW14.10 °C2.40 °C 
16:00:0013.60 °C1009.30 hPa45.00 %1.90 °C 
15:45:0013.70 °C1009.70 hPa47.00 %4.32 km/hWSW13.70 °C2.60 °C 
15:30:0013.30 °C1009.70 hPa46.00 %1.90 °C 
15:15:0013.40 °C1010.20 hPa46.00 %13.32 km/hSSW12.30 °C2.00 °C 
15:00:0012.60 °C1010.30 hPa48.00 %1.90 °C 
14:45:0012.30 °C1010.50 hPa50.00 %4.68 km/hSSW12.30 °C2.20 °C 
14:30:0011.90 °C1010.90 hPa49.00 %1.50 °C 
14:15:0011.60 °C1010.70 hPa51.00 %2.88 km/hSW11.60 °C1.80 °C 
14:00:0012.00 °C1011.00 hPa50.00 %1.90 °C 
13:45:0012.40 °C1011.30 hPa52.00 %4.68 km/hSSO12.40 °C2.80 °C 
13:30:0011.80 °C1011.30 hPa54.00 %1.80 km/hSO11.80 °C2.80 °C 
13:15:0010.90 °C1011.50 hPa55.00 %2.20 °C 
13:00:0010.20 °C1011.50 hPa56.00 %1.08 km/hSW10.20 °C1.80 °C 
12:45:0010.10 °C1011.60 hPa53.00 %1.00 °C 
12:30:0010.10 °C1011.70 hPa53.00 %16.92 km/hSSW7.80 °C1.00 °C 
12:15:0010.10 °C1011.90 hPa52.00 %9.00 km/hWSW8.90 °C0.70 °C 
12:00:009.50 °C1012.10 hPa55.00 %2.16 km/hNW9.50 °C0.90 °C 
11:45:008.90 °C1012.30 hPa55.00 %5.76 km/hWSW8.30 °C0.40 °C 
11:30:008.60 °C1012.50 hPa57.00 %2.52 km/hNNW8.60 °C0.60 °C 
11:15:008.20 °C1012.70 hPa59.00 %0.70 °C 
11:00:007.90 °C1012.90 hPa58.00 %8.28 km/hW6.50 °C0.20 °C 
10:45:007.50 °C1013.00 hPa59.00 %3.96 km/hW7.50 °C0.00 °C 
10:30:006.50 °C1013.10 hPa64.00 %0.20 °C 
10:15:005.70 °C1013.30 hPa66.00 %6.48 km/hWSW4.40 °C-0.10 °C 
10:00:005.30 °C1013.30 hPa68.00 %11.16 km/hWSW2.80 °C-0.10 °C 
09:45:005.00 °C1013.20 hPa72.00 %5.40 km/hSW3.90 °C0.40 °C 
09:30:004.40 °C1013.40 hPa73.00 %0.00 °C 
09:15:004.10 °C1013.50 hPa74.00 %-0.10 °C 
09:00:003.90 °C1013.50 hPa76.00 %7.92 km/hSSW1.90 °C0.10 °C 
08:45:003.50 °C1013.90 hPa79.00 %1.44 km/hNNW3.50 °C0.20 °C 
08:30:002.90 °C1014.00 hPa81.00 %0.00 °C 
08:15:002.90 °C1014.20 hPa83.00 %9.72 km/hSW0.20 °C0.30 °C 
08:00:002.30 °C1014.40 hPa86.00 %0.20 °C 
07:45:001.60 °C1014.30 hPa87.00 %-0.30 °C 
07:30:000.60 °C1014.20 hPa89.00 %-1.00 °C 
07:15:00-1.20 °C1014.30 hPa91.00 %-2.60 °C 
07:00:00-2.40 °C1014.30 hPa90.00 %-4.00 °C 
06:45:00-2.70 °C1014.30 hPa89.00 %-4.40 °C 
06:30:00-2.80 °C1014.20 hPa88.00 %-4.70 °C 
06:15:00-2.50 °C1014.40 hPa88.00 %-4.40 °C 
06:00:00-2.10 °C1014.40 hPa88.00 %-4.00 °C 
05:45:00-1.60 °C1014.40 hPa88.00 %-3.50 °C 
05:30:00-1.50 °C1014.50 hPa88.00 %-3.40 °C 
05:15:00-1.20 °C1014.70 hPa87.00 %-3.30 °C 
05:00:00-0.90 °C1014.80 hPa88.00 %-2.80 °C 
04:45:00-0.70 °C1014.80 hPa88.00 %-2.60 °C 
04:30:00-0.40 °C1015.00 hPa88.00 %-2.30 °C 
04:15:00-0.20 °C1014.90 hPa87.00 %-2.30 °C 
04:00:000.00 °C1015.30 hPa87.00 %-2.10 °C 
03:45:000.20 °C1015.40 hPa86.00 %-1.90 °C 
03:30:000.60 °C1015.20 hPa86.00 %-1.50 °C 
03:15:000.90 °C1015.30 hPa86.00 %-1.20 °C 
03:00:001.00 °C1015.50 hPa86.00 %-1.10 °C 
02:45:001.00 °C1015.40 hPa86.00 %-1.10 °C 
02:30:000.90 °C1015.60 hPa86.00 %-1.20 °C 
02:15:000.80 °C1015.70 hPa87.00 %-1.10 °C 
02:00:000.60 °C1015.70 hPa87.00 %-1.30 °C 
01:45:000.60 °C1015.70 hPa87.00 %-1.30 °C 
01:30:000.40 °C1015.80 hPa87.00 %-1.50 °C 
01:15:000.40 °C1016.00 hPa87.00 %-1.50 °C 
01:00:000.30 °C1015.90 hPa87.00 %-1.60 °C 
00:45:000.30 °C1016.20 hPa87.00 %-1.60 °C 
00:30:000.20 °C1016.20 hPa87.00 %-1.70 °C 
00:15:000.30 °C1016.00 hPa86.00 %-1.80 °C 
00:00:000.40 °C1016.00 hPa85.00 %-1.80 °C 

Permanenter Link zu dieser Seite: Wetter im Erzgebirge am 24.04.2017
Performance-Info: Die Erstellung der Seite / Statistik(en) / Tabelle(n) erforderte 5 Datenbankserver-Abfrage(n) und dauerte 103 Millisekunden. (Dieser Messwert ist von der Gesamt-Auslastung des Servers abhängig.)
Erzgebirge - Wetter | Erzgebirge - Wetter (Mobilgeräte) | Komplette Klimadatenbank